Terminal Aerodrome Forecast
Issued by NWS

Home | Current Version | Previous Version | Text Only | Print | Product List | Glossary On
Versions: 1 2 3 4 5 6 7 8 9 10 11 12 13 14 15 16 17
000
FTAK31 PAJN 202300
TAFAYA
TAF
PAYA 202340Z 2100/2124 VRB03KT P6SM -SHRA BKN040 OVC060
     FM210300 VRB03KT P6SM VCSH SCT025 BKN050
     FM210800 00000KT 6SM BR SCT004 SCT100
     FM211700 07006KT P6SM BKN100
     FM212100 09008KT P6SM BKN050 BKN100
      AMD LTD TO CLD VIS AND WIND 2101/2110=

USA.gov is the U.S. government's official web portal to all federal, state and local government web resources and services.